Dayton, Illinois
Current Conditions -  °F | °C
As of 5:15 AM on Thursday 23 Oct 2014 (Local Time) from KVYS Reporting Station
Clear Clear  
Wind Chill: 34°   Ceiling: Unl
Heat Index: 38°   Visibility: 10mi
Dew Point: 35°   Wind: 6mph
Humidity: 86%   Direction: 150°SSE
Pressure: 30.21"   Gusts: NA
Location:  41.4349°N, 88.8687°W
Report Text: KVYS 231015Z AUTO 15005KT 10SM CLR 04/01 A3021 RMK AO2 T00360014
Loading
Personal Weather Stations






























Interactive Weather Map
Tropical Storm Tracking
New forecast layout! Learn more

10-Day Weather Forecast

Advertisements
Track Severe Weather on mobile